sensor_id;sensor_type;location;lat;lon;timestamp;pressure;altitude;pressure_sealevel;temperature;humidity
29733;BME280;16643;43.158;25.302;2023-08-12T00:01:35;98427.31;;;19.75;68.66
29733;BME280;16643;43.158;25.302;2023-08-12T00:04:01;98445.16;;;19.86;68.68
29733;BME280;16643;43.158;25.302;2023-08-12T00:06:26;98423.28;;;19.84;68.62
29733;BME280;16643;43.158;25.302;2023-08-12T00:08:53;98441.38;;;19.90;69.00
29733;BME280;16643;43.158;25.302;2023-08-12T00:11:19;98470.13;;;20.09;68.98
29733;BME280;16643;43.158;25.302;2023-08-12T00:13:44;98412.66;;;19.71;69.23
29733;BME280;16643;43.158;25.302;2023-08-12T00:16:10;98442.44;;;19.73;69.30
29733;BME280;16643;43.158;25.302;2023-08-12T00:18:35;98449.38;;;19.88;69.22
29733;BME280;16643;43.158;25.302;2023-08-12T00:21:08;98386.75;;;19.49;69.31
29733;BME280;16643;43.158;25.302;2023-08-12T00:23:39;98444.50;;;19.82;69.70
29733;BME280;16643;43.158;25.302;2023-08-12T00:26:06;98474.91;;;20.02;69.57
29733;BME280;16643;43.158;25.302;2023-08-12T00:28:33;98460.88;;;19.87;69.70
29733;BME280;16643;43.158;25.302;2023-08-12T00:30:58;98403.13;;;19.54;69.08
29733;BME280;16643;43.158;25.302;2023-08-12T00:33:24;98421.03;;;19.64;69.72
29733;BME280;16643;43.158;25.302;2023-08-12T00:35:49;98408.69;;;19.50;69.67
29733;BME280;16643;43.158;25.302;2023-08-12T00:38:15;98419.88;;;19.53;69.23
29733;BME280;16643;43.158;25.302;2023-08-12T00:40:41;98424.41;;;19.66;69.32
29733;BME280;16643;43.158;25.302;2023-08-12T00:43:07;98415.88;;;19.62;68.71
29733;BME280;16643;43.158;25.302;2023-08-12T00:45:34;98459.94;;;19.88;68.50
29733;BME280;16643;43.158;25.302;2023-08-12T00:48:02;98410.50;;;19.49;68.62
29733;BME280;16643;43.158;25.302;2023-08-12T00:50:28;98469.00;;;19.84;68.55
29733;BME280;16643;43.158;25.302;2023-08-12T00:52:54;98416.13;;;19.57;68.65
29733;BME280;16643;43.158;25.302;2023-08-12T00:55:20;98453.81;;;19.88;68.02
29733;BME280;16643;43.158;25.302;2023-08-12T00:57:46;98401.50;;;19.38;67.78
29733;BME280;16643;43.158;25.302;2023-08-12T01:00:13;98444.31;;;19.85;67.87
29733;BME280;16643;43.158;25.302;2023-08-12T01:02:42;98406.59;;;19.55;67.86
29733;BME280;16643;43.158;25.302;2023-08-12T01:05:11;98425.75;;;19.58;67.80
29733;BME280;16643;43.158;25.302;2023-08-12T01:07:36;98402.94;;;19.57;67.94
29733;BME280;16643;43.158;25.302;2023-08-12T01:10:02;98436.94;;;19.76;67.36
29733;BME280;16643;43.158;25.302;2023-08-12T01:12:37;98409.69;;;19.47;67.74
29733;BME280;16643;43.158;25.302;2023-08-12T01:15:10;98446.09;;;19.85;68.11
29733;BME280;16643;43.158;25.302;2023-08-12T01:17:38;98389.44;;;19.48;67.67
29733;BME280;16643;43.158;25.302;2023-08-12T01:20:08;98398.06;;;19.51;67.75
29733;BME280;16643;43.158;25.302;2023-08-12T01:22:37;98418.09;;;19.68;67.51
29733;BME280;16643;43.158;25.302;2023-08-12T01:25:05;98364.78;;;19.35;67.77
29733;BME280;16643;43.158;25.302;2023-08-12T01:27:31;98390.34;;;19.48;68.03
29733;BME280;16643;43.158;25.302;2023-08-12T01:29:57;98421.03;;;19.64;67.70
29733;BME280;16643;43.158;25.302;2023-08-12T01:32:43;98430.81;;;19.76;67.61
29733;BME280;16643;43.158;25.302;2023-08-12T01:37:57;98395.28;;;19.39;67.41
29733;BME280;16643;43.158;25.302;2023-08-12T01:40:24;98431.97;;;19.57;67.26
29733;BME280;16643;43.158;25.302;2023-08-12T01:42:50;98390.38;;;19.33;67.63
29733;BME280;16643;43.158;25.302;2023-08-12T01:45:18;98388.78;;;19.30;67.28
29733;BME280;16643;43.158;25.302;2023-08-12T01:47:47;98461.16;;;19.69;67.58
29733;BME280;16643;43.158;25.302;2023-08-12T01:50:16;98420.38;;;19.60;67.47
29733;BME280;16643;43.158;25.302;2023-08-12T01:52:44;98440.72;;;19.72;67.93
29733;BME280;16643;43.158;25.302;2023-08-12T01:55:10;98446.47;;;19.65;67.89
29733;BME280;16643;43.158;25.302;2023-08-12T01:57:36;98389.81;;;19.28;67.66
29733;BME280;16643;43.158;25.302;2023-08-12T02:00:02;98393.09;;;19.31;66.99
29733;BME280;16643;43.158;25.302;2023-08-12T02:02:27;98438.78;;;19.46;66.96
29733;BME280;16643;43.158;25.302;2023-08-12T02:04:53;98422.41;;;19.27;67.29
29733;BME280;16643;43.158;25.302;2023-08-12T02:07:19;98385.59;;;19.25;67.15
29733;BME280;16643;43.158;25.302;2023-08-12T02:09:44;98455.69;;;19.57;67.37
29733;BME280;16643;43.158;25.302;2023-08-12T02:12:10;98452.13;;;19.58;66.94
29733;BME280;16643;43.158;25.302;2023-08-12T02:14:36;98465.78;;;19.65;67.18
29733;BME280;16643;43.158;25.302;2023-08-12T02:17:02;98461.66;;;19.61;67.18
29733;BME280;16643;43.158;25.302;2023-08-12T02:19:32;98447.25;;;19.52;66.91
29733;BME280;16643;43.158;25.302;2023-08-12T02:21:58;98458.78;;;19.64;67.22
29733;BME280;16643;43.158;25.302;2023-08-12T02:24:24;98441.28;;;19.49;66.92
29733;BME280;16643;43.158;25.302;2023-08-12T02:26:50;98462.09;;;19.53;66.62
29733;BME280;16643;43.158;25.302;2023-08-12T02:29:15;98477.75;;;19.56;66.49
29733;BME280;16643;43.158;25.302;2023-08-12T02:31:41;98456.31;;;19.47;67.78
29733;BME280;16643;43.158;25.302;2023-08-12T02:34:07;98472.38;;;19.58;67.17
29733;BME280;16643;43.158;25.302;2023-08-12T02:36:32;98465.09;;;19.47;67.35
29733;BME280;16643;43.158;25.302;2023-08-12T02:38:58;98475.56;;;19.49;66.89
29733;BME280;16643;43.158;25.302;2023-08-12T02:41:23;98499.13;;;19.66;68.13
29733;BME280;16643;43.158;25.302;2023-08-12T02:43:49;98480.19;;;19.60;68.04
29733;BME280;16643;43.158;25.302;2023-08-12T02:46:15;98500.38;;;19.61;67.73
29733;BME280;16643;43.158;25.302;2023-08-12T02:48:41;98473.63;;;19.37;67.87
29733;BME280;16643;43.158;25.302;2023-08-12T02:51:07;98481.91;;;19.31;68.06
29733;BME280;16643;43.158;25.302;2023-08-12T02:53:33;98506.25;;;19.20;69.19
29733;BME280;16643;43.158;25.302;2023-08-12T02:55:58;98515.22;;;19.17;69.43
29733;BME280;16643;43.158;25.302;2023-08-12T02:58:24;98505.31;;;19.07;70.23
29733;BME280;16643;43.158;25.302;2023-08-12T03:00:49;98479.06;;;18.90;71.31
29733;BME280;16643;43.158;25.302;2023-08-12T03:03:15;98487.91;;;18.89;71.37
29733;BME280;16643;43.158;25.302;2023-08-12T03:05:41;98502.66;;;19.07;71.59
29733;BME280;16643;43.158;25.302;2023-08-12T03:08:08;98478.91;;;18.93;71.91
29733;BME280;16643;43.158;25.302;2023-08-12T03:10:34;98495.09;;;19.01;71.81
29733;BME280;16643;43.158;25.302;2023-08-12T03:12:59;98495.09;;;-142.82;71.81
29733;BME280;16643;43.158;25.302;2023-08-12T03:15:25;98511.31;;;19.09;73.43
29733;BME280;16643;43.158;25.302;2023-08-12T03:17:50;98501.22;;;19.01;72.53
29733;BME280;16643;43.158;25.302;2023-08-12T03:20:16;98477.72;;;18.82;72.73
29733;BME280;16643;43.158;25.302;2023-08-12T03:22:42;98475.44;;;18.76;72.72
29733;BME280;16643;43.158;25.302;2023-08-12T03:25:08;98506.97;;;18.78;72.71
29733;BME280;16643;43.158;25.302;2023-08-12T03:27:33;98486.41;;;18.69;72.77
29733;BME280;16643;43.158;25.302;2023-08-12T03:30:00;98519.88;;;18.67;73.09
29733;BME280;16643;43.158;25.302;2023-08-12T03:32:25;98477.16;;;18.46;73.32
29733;BME280;16643;43.158;25.302;2023-08-12T03:34:51;98520.22;;;18.76;73.67
29733;BME280;16643;43.158;25.302;2023-08-12T03:37:18;98524.84;;;18.73;74.57
29733;BME280;16643;43.158;25.302;2023-08-12T03:39:43;98533.13;;;18.49;75.14
29733;BME280;16643;43.158;25.302;2023-08-12T03:42:09;98519.13;;;18.49;75.75
29733;BME280;16643;43.158;25.302;2023-08-12T03:44:35;98524.88;;;18.56;74.54
29733;BME280;16643;43.158;25.302;2023-08-12T03:47:00;98525.81;;;18.55;75.01
29733;BME280;16643;43.158;25.302;2023-08-12T03:49:26;98515.47;;;18.36;76.97
29733;BME280;16643;43.158;25.302;2023-08-12T03:51:51;98510.19;;;18.36;76.10
29733;BME280;16643;43.158;25.302;2023-08-12T03:54:18;74148.16;;;-142.82;76.10
29733;BME280;16643;43.158;25.302;2023-08-12T03:56:43;98506.28;;;18.27;77.57
29733;BME280;16643;43.158;25.302;2023-08-12T03:59:09;98497.84;;;18.21;76.98
29733;BME280;16643;43.158;25.302;2023-08-12T04:01:34;98549.09;;;18.46;77.01
29733;BME280;16643;43.158;25.302;2023-08-12T04:04:00;98489.66;;;18.27;77.68
29733;BME280;16643;43.158;25.302;2023-08-12T04:06:26;98485.72;;;18.18;77.77
29733;BME280;16643;43.158;25.302;2023-08-12T04:08:51;98514.94;;;18.45;77.36
29733;BME280;16643;43.158;25.302;2023-08-12T04:11:17;98536.50;;;18.51;77.50
29733;BME280;16643;43.158;25.302;2023-08-12T04:13:43;98506.53;;;18.38;77.49
29733;BME280;16643;43.158;25.302;2023-08-12T04:16:08;98524.75;;;18.59;74.57
29733;BME280;16643;43.158;25.302;2023-08-12T04:18:34;98546.41;;;18.79;74.91
29733;BME280;16643;43.158;25.302;2023-08-12T04:20:59;98515.56;;;18.66;74.61
29733;BME280;16643;43.158;25.302;2023-08-12T04:23:25;98542.75;;;18.82;73.18
29733;BME280;16643;43.158;25.302;2023-08-12T04:25:52;98514.38;;;18.71;72.57
29733;BME280;16643;43.158;25.302;2023-08-12T04:28:18;98522.69;;;18.95;71.36
29733;BME280;16643;43.158;25.302;2023-08-12T04:30:48;98542.00;;;19.10;75.59
29733;BME280;16643;43.158;25.302;2023-08-12T04:33:16;98504.97;;;18.97;76.70
29733;BME280;16643;43.158;25.302;2023-08-12T04:35:42;98526.63;;;19.18;76.93
29733;BME280;16643;43.158;25.302;2023-08-12T04:38:07;98546.16;;;19.44;72.42
29733;BME280;16643;43.158;25.302;2023-08-12T04:40:33;98546.84;;;19.47;74.94
29733;BME280;16643;43.158;25.302;2023-08-12T04:42:59;98553.69;;;19.66;73.50
29733;BME280;16643;43.158;25.302;2023-08-12T04:45:25;98547.75;;;19.76;72.55
29733;BME280;16643;43.158;25.302;2023-08-12T04:47:52;98558.44;;;19.89;71.73
29733;BME280;16643;43.158;25.302;2023-08-12T04:50:17;98546.47;;;19.83;70.61
29733;BME280;16643;43.158;25.302;2023-08-12T04:52:43;98536.56;;;19.87;71.26
29733;BME280;16643;43.158;25.302;2023-08-12T04:55:09;98561.81;;;19.91;71.15
29733;BME280;16643;43.158;25.302;2023-08-12T04:57:37;98561.94;;;20.18;71.17
29733;BME280;16643;43.158;25.302;2023-08-12T05:00:04;98553.63;;;20.24;70.49
29733;BME280;16643;43.158;25.302;2023-08-12T05:02:30;98531.19;;;20.31;69.03
29733;BME280;16643;43.158;25.302;2023-08-12T05:04:57;98484.31;;;20.20;68.82
29733;BME280;16643;43.158;25.302;2023-08-12T05:07:23;98559.59;;;20.83;67.23
29733;BME280;16643;43.158;25.302;2023-08-12T05:09:49;98509.66;;;20.51;68.95
29733;BME280;16643;43.158;25.302;2023-08-12T05:12:14;98546.81;;;20.89;67.85
29733;BME280;16643;43.158;25.302;2023-08-12T05:14:40;98560.72;;;21.20;68.19
29733;BME280;16643;43.158;25.302;2023-08-12T05:17:06;98562.66;;;21.30;67.45
29733;BME280;16643;43.158;25.302;2023-08-12T05:19:32;98521.06;;;21.20;68.15
29733;BME280;16643;43.158;25.302;2023-08-12T05:21:57;98533.97;;;21.24;66.71
29733;BME280;16643;43.158;25.302;2023-08-12T05:24:23;98543.19;;;21.31;65.13
29733;BME280;16643;43.158;25.302;2023-08-12T05:26:49;98545.75;;;21.33;65.84
29733;BME280;16643;43.158;25.302;2023-08-12T05:29:14;98524.38;;;21.49;63.17
29733;BME280;16643;43.158;25.302;2023-08-12T05:31:40;98562.09;;;21.65;59.89
29733;BME280;16643;43.158;25.302;2023-08-12T05:34:06;98550.88;;;21.61;60.77
29733;BME280;16643;43.158;25.302;2023-08-12T05:36:31;98569.22;;;21.77;61.29
29733;BME280;16643;43.158;25.302;2023-08-12T05:38:57;98553.53;;;21.87;60.23
29733;BME280;16643;43.158;25.302;2023-08-12T05:41:23;98569.78;;;22.07;59.52
29733;BME280;16643;43.158;25.302;2023-08-12T05:43:48;98526.13;;;21.88;57.94
29733;BME280;16643;43.158;25.302;2023-08-12T05:46:14;98531.63;;;21.85;56.43
29733;BME280;16643;43.158;25.302;2023-08-12T05:48:40;98558.72;;;22.14;56.80
29733;BME280;16643;43.158;25.302;2023-08-12T05:51:06;98574.00;;;22.23;56.27
29733;BME280;16643;43.158;25.302;2023-08-12T05:53:31;98564.75;;;22.41;56.32
29733;BME280;16643;43.158;25.302;2023-08-12T05:55:58;98560.50;;;22.51;55.51
29733;BME280;16643;43.158;25.302;2023-08-12T05:58:23;98513.16;;;22.34;55.88
29733;BME280;16643;43.158;25.302;2023-08-12T06:00:49;98544.16;;;22.57;56.22
29733;BME280;16643;43.158;25.302;2023-08-12T06:03:15;98548.00;;;22.90;55.02
29733;BME280;16643;43.158;25.302;2023-08-12T06:05:46;98563.47;;;23.20;55.13
29733;BME280;16643;43.158;25.302;2023-08-12T06:08:13;98541.75;;;23.26;53.69
29733;BME280;16643;43.158;25.302;2023-08-12T06:10:39;98549.88;;;23.24;52.65
29733;BME280;16643;43.158;25.302;2023-08-12T06:13:05;98556.28;;;23.33;52.35
29733;BME280;16643;43.158;25.302;2023-08-12T06:15:31;98543.78;;;23.46;52.55
29733;BME280;16643;43.158;25.302;2023-08-12T06:17:59;98559.06;;;23.66;52.18
29733;BME280;16643;43.158;25.302;2023-08-12T06:20:25;98565.81;;;23.70;51.23
29733;BME280;16643;43.158;25.302;2023-08-12T06:22:51;98557.75;;;23.72;50.27
29733;BME280;16643;43.158;25.302;2023-08-12T06:25:17;98548.09;;;23.82;51.32
29733;BME280;16643;43.158;25.302;2023-08-12T06:27:44;98563.50;;;24.12;49.50
29733;BME280;16643;43.158;25.302;2023-08-12T06:30:11;98542.59;;;24.18;50.72
29733;BME280;16643;43.158;25.302;2023-08-12T06:32:37;98541.16;;;24.14;50.27
29733;BME280;16643;43.158;25.302;2023-08-12T06:35:03;98554.09;;;24.41;48.60
29733;BME280;16643;43.158;25.302;2023-08-12T06:37:29;98563.41;;;24.58;48.50
29733;BME280;16643;43.158;25.302;2023-08-12T06:39:54;98561.72;;;24.57;49.10
29733;BME280;16643;43.158;25.302;2023-08-12T06:42:21;98529.44;;;24.28;48.64
29733;BME280;16643;43.158;25.302;2023-08-12T06:44:54;98544.41;;;24.51;47.96
29733;BME280;16643;43.158;25.302;2023-08-12T06:47:20;98546.16;;;24.95;50.59
29733;BME280;16643;43.158;25.302;2023-08-12T06:49:47;98521.59;;;25.03;48.16
29733;BME280;16643;43.158;25.302;2023-08-12T06:52:13;98516.81;;;25.18;48.25
29733;BME280;16643;43.158;25.302;2023-08-12T06:54:38;98519.16;;;25.11;47.68
29733;BME280;16643;43.158;25.302;2023-08-12T06:57:04;98540.59;;;25.62;48.42
29733;BME280;16643;43.158;25.302;2023-08-12T06:59:30;98528.16;;;25.93;48.19
29733;BME280;16643;43.158;25.302;2023-08-12T07:01:55;98531.84;;;26.02;48.39
29733;BME280;16643;43.158;25.302;2023-08-12T07:04:21;98536.38;;;26.11;45.91
29733;BME280;16643;43.158;25.302;2023-08-12T07:06:47;98554.06;;;26.12;47.49
29733;BME280;16643;43.158;25.302;2023-08-12T07:09:13;98518.63;;;25.91;46.59
29733;BME280;16643;43.158;25.302;2023-08-12T07:11:39;98550.34;;;25.94;45.96
29733;BME280;16643;43.158;25.302;2023-08-12T07:14:04;98526.78;;;25.99;49.36
29733;BME280;16643;43.158;25.302;2023-08-12T07:16:30;98544.81;;;26.37;46.72
29733;BME280;16643;43.158;25.302;2023-08-12T07:18:56;98547.47;;;26.37;46.96
29733;BME280;16643;43.158;25.302;2023-08-12T07:21:21;98550.66;;;26.61;45.90
29733;BME280;16643;43.158;25.302;2023-08-12T07:23:47;98518.31;;;26.55;47.57
29733;BME280;16643;43.158;25.302;2023-08-12T07:26:13;98550.13;;;26.77;45.34
29733;BME280;16643;43.158;25.302;2023-08-12T07:28:39;98544.53;;;26.90;44.91
29733;BME280;16643;43.158;25.302;2023-08-12T07:31:04;98515.22;;;26.99;45.16
29733;BME280;16643;43.158;25.302;2023-08-12T07:33:30;98525.34;;;27.15;43.77
29733;BME280;16643;43.158;25.302;2023-08-12T07:35:56;98519.72;;;27.08;44.76
29733;BME280;16643;43.158;25.302;2023-08-12T07:38:21;98504.84;;;27.16;44.27
29733;BME280;16643;43.158;25.302;2023-08-12T07:40:51;98525.19;;;27.36;44.11
29733;BME280;16643;43.158;25.302;2023-08-12T07:43:17;98519.88;;;27.26;42.67
29733;BME280;16643;43.158;25.302;2023-08-12T07:45:42;98550.38;;;27.62;44.13
29733;BME280;16643;43.158;25.302;2023-08-12T07:48:08;98542.34;;;27.53;41.99
29733;BME280;16643;43.158;25.302;2023-08-12T07:50:34;98537.72;;;27.26;43.15
29733;BME280;16643;43.158;25.302;2023-08-12T07:53:00;98551.34;;;27.23;43.35
29733;BME280;16643;43.158;25.302;2023-08-12T07:55:29;98545.72;;;27.35;43.98
29733;BME280;16643;43.158;25.302;2023-08-12T07:57:55;98477.22;;;26.76;42.60
29733;BME280;16643;43.158;25.302;2023-08-12T08:00:21;98521.13;;;27.03;42.60
29733;BME280;16643;43.158;25.302;2023-08-12T08:02:48;98522.25;;;27.00;43.20
29733;BME280;16643;43.158;25.302;2023-08-12T08:05:13;98553.31;;;27.21;42.22
29733;BME280;16643;43.158;25.302;2023-08-12T08:07:39;98540.53;;;27.15;43.38
29733;BME280;16643;43.158;25.302;2023-08-12T08:10:05;98537.53;;;26.98;43.09
29733;BME280;16643;43.158;25.302;2023-08-12T08:12:31;98544.03;;;27.44;44.36
29733;BME280;16643;43.158;25.302;2023-08-12T08:14:57;98538.53;;;27.45;41.45
29733;BME280;16643;43.158;25.302;2023-08-12T08:17:22;98531.78;;;27.32;40.33
29733;BME280;16643;43.158;25.302;2023-08-12T08:19:48;98519.72;;;27.18;42.06
29733;BME280;16643;43.158;25.302;2023-08-12T08:22:13;98520.13;;;27.23;42.48
29733;BME280;16643;43.158;25.302;2023-08-12T08:24:39;98548.53;;;27.43;42.59
29733;BME280;16643;43.158;25.302;2023-08-12T08:27:05;98529.13;;;27.51;43.17
29733;BME280;16643;43.158;25.302;2023-08-12T08:29:32;98536.88;;;27.73;42.62
29733;BME280;16643;43.158;25.302;2023-08-12T08:31:58;98535.41;;;27.98;40.47
29733;BME280;16643;43.158;25.302;2023-08-12T08:34:23;98537.44;;;27.48;39.00
29733;BME280;16643;43.158;25.302;2023-08-12T08:36:50;98548.38;;;27.83;41.81
29733;BME280;16643;43.158;25.302;2023-08-12T08:39:15;98523.28;;;28.04;43.17
29733;BME280;16643;43.158;25.302;2023-08-12T08:41:41;98528.84;;;28.30;39.42
29733;BME280;16643;43.158;25.302;2023-08-12T08:44:08;98534.66;;;28.52;41.23
29733;BME280;16643;43.158;25.302;2023-08-12T08:46:35;98542.22;;;28.57;40.42
29733;BME280;16643;43.158;25.302;2023-08-12T08:49:01;98523.44;;;28.67;39.98
29733;BME280;16643;43.158;25.302;2023-08-12T08:51:30;98486.41;;;28.62;40.95
29733;BME280;16643;43.158;25.302;2023-08-12T08:53:56;98482.97;;;28.52;38.56
29733;BME280;16643;43.158;25.302;2023-08-12T08:56:23;98517.44;;;28.82;39.03
29733;BME280;16643;43.158;25.302;2023-08-12T08:58:49;98511.09;;;29.01;39.96
29733;BME280;16643;43.158;25.302;2023-08-12T09:01:17;98522.84;;;29.18;38.05
29733;BME280;16643;43.158;25.302;2023-08-12T09:03:45;98506.06;;;28.98;40.75
29733;BME280;16643;43.158;25.302;2023-08-12T09:06:12;98518.69;;;29.23;38.83
29733;BME280;16643;43.158;25.302;2023-08-12T09:08:41;98526.06;;;29.39;36.88
29733;BME280;16643;43.158;25.302;2023-08-12T09:11:12;98512.56;;;29.31;39.96
29733;BME280;16643;43.158;25.302;2023-08-12T09:13:38;98499.34;;;29.12;38.82
29733;BME280;16643;43.158;25.302;2023-08-12T09:16:04;98502.84;;;29.12;37.75
29733;BME280;16643;43.158;25.302;2023-08-12T09:18:30;98501.25;;;29.19;38.40
29733;BME280;16643;43.158;25.302;2023-08-12T09:20:56;98508.19;;;29.12;39.34
29733;BME280;16643;43.158;25.302;2023-08-12T09:23:22;98498.31;;;29.13;38.29
29733;BME280;16643;43.158;25.302;2023-08-12T09:25:48;98520.47;;;29.33;38.54
29733;BME280;16643;43.158;25.302;2023-08-12T09:28:14;98464.69;;;29.10;36.20
29733;BME280;16643;43.158;25.302;2023-08-12T09:30:40;98493.44;;;29.44;39.05
29733;BME280;16643;43.158;25.302;2023-08-12T09:33:08;98478.91;;;29.72;37.83
29733;BME280;16643;43.158;25.302;2023-08-12T09:35:38;98511.19;;;29.63;36.12
29733;BME280;16643;43.158;25.302;2023-08-12T09:38:06;98516.25;;;29.48;37.51
29733;BME280;16643;43.158;25.302;2023-08-12T09:40:34;98482.94;;;29.50;38.18
29733;BME280;16643;43.158;25.302;2023-08-12T09:43:01;98491.47;;;29.46;37.39
29733;BME280;16643;43.158;25.302;2023-08-12T09:45:27;98499.16;;;29.13;37.21
29733;BME280;16643;43.158;25.302;2023-08-12T09:47:56;98480.75;;;29.10;37.70
29733;BME280;16643;43.158;25.302;2023-08-12T09:50:23;98489.44;;;29.30;37.87
29733;BME280;16643;43.158;25.302;2023-08-12T09:52:49;98469.66;;;29.23;37.50
29733;BME280;16643;43.158;25.302;2023-08-12T09:55:17;98492.97;;;29.48;37.98
29733;BME280;16643;43.158;25.302;2023-08-12T09:57:43;98491.25;;;29.65;37.90
29733;BME280;16643;43.158;25.302;2023-08-12T10:00:11;98454.50;;;29.57;36.72
29733;BME280;16643;43.158;25.302;2023-08-12T10:02:48;98468.38;;;29.53;38.22
29733;BME280;16643;43.158;25.302;2023-08-12T10:05:22;98476.25;;;29.80;38.69
29733;BME280;16643;43.158;25.302;2023-08-12T10:07:52;98460.19;;;29.54;37.39
29733;BME280;16643;43.158;25.302;2023-08-12T10:10:18;98465.66;;;29.45;36.90
29733;BME280;16643;43.158;25.302;2023-08-12T10:12:44;98438.75;;;29.54;37.05
29733;BME280;16643;43.158;25.302;2023-08-12T10:15:11;98471.59;;;30.08;37.07
29733;BME280;16643;43.158;25.302;2023-08-12T10:17:38;98454.94;;;29.96;36.26
29733;BME280;16643;43.158;25.302;2023-08-12T10:20:05;98440.72;;;30.04;39.36
29733;BME280;16643;43.158;25.302;2023-08-12T10:22:33;98451.94;;;30.42;36.12
29733;BME280;16643;43.158;25.302;2023-08-12T10:25:01;98467.47;;;30.22;34.50
29733;BME280;16643;43.158;25.302;2023-08-12T10:27:28;98471.84;;;30.23;36.49
29733;BME280;16643;43.158;25.302;2023-08-12T10:29:57;98430.41;;;30.25;37.18
29733;BME280;16643;43.158;25.302;2023-08-12T10:32:26;98450.28;;;30.07;36.18
29733;BME280;16643;43.158;25.302;2023-08-12T10:34:58;98472.72;;;29.98;36.07
29733;BME280;16643;43.158;25.302;2023-08-12T10:37:24;98473.28;;;30.09;37.13
29733;BME280;16643;43.158;25.302;2023-08-12T10:39:54;98442.25;;;30.07;35.33
29733;BME280;16643;43.158;25.302;2023-08-12T10:42:42;98456.06;;;30.28;36.42
29733;BME280;16643;43.158;25.302;2023-08-12T10:45:08;98425.53;;;30.21;35.82
29733;BME280;16643;43.158;25.302;2023-08-12T10:47:41;98447.34;;;30.68;35.62
29733;BME280;16643;43.158;25.302;2023-08-12T10:50:22;98425.50;;;30.55;33.55
29733;BME280;16643;43.158;25.302;2023-08-12T10:52:53;98448.25;;;30.43;35.77
29733;BME280;16643;43.158;25.302;2023-08-12T10:55:21;98418.31;;;29.87;35.01
29733;BME280;16643;43.158;25.302;2023-08-12T10:57:49;98437.66;;;30.33;39.10
29733;BME280;16643;43.158;25.302;2023-08-12T11:00:17;98422.81;;;30.63;35.93
29733;BME280;16643;43.158;25.302;2023-08-12T11:02:49;98417.00;;;30.92;39.67
29733;BME280;16643;43.158;25.302;2023-08-12T11:05:15;98428.88;;;30.73;35.47
29733;BME280;16643;43.158;25.302;2023-08-12T11:10:16;98433.94;;;30.92;35.79
29733;BME280;16643;43.158;25.302;2023-08-12T11:15:35;98406.56;;;30.81;33.42
29733;BME280;16643;43.158;25.302;2023-08-12T11:18:07;98435.78;;;31.08;34.56
29733;BME280;16643;43.158;25.302;2023-08-12T11:20:34;98433.63;;;31.20;34.67
29733;BME280;16643;43.158;25.302;2023-08-12T11:23:01;98407.09;;;31.09;32.80
29733;BME280;16643;43.158;25.302;2023-08-12T11:25:31;98414.00;;;31.11;35.40
29733;BME280;16643;43.158;25.302;2023-08-12T11:27:58;98403.56;;;31.16;34.31
29733;BME280;16643;43.158;25.302;2023-08-12T11:30:24;98399.88;;;31.25;34.19
29733;BME280;16643;43.158;25.302;2023-08-12T11:32:52;98416.50;;;31.21;32.79
29733;BME280;16643;43.158;25.302;2023-08-12T11:35:20;98420.19;;;31.28;33.92
29733;BME280;16643;43.158;25.302;2023-08-12T11:37:53;98426.59;;;31.11;35.72
29733;BME280;16643;43.158;25.302;2023-08-12T11:40:21;98398.84;;;31.18;34.52
29733;BME280;16643;43.158;25.302;2023-08-12T11:42:48;98407.09;;;31.17;33.88
29733;BME280;16643;43.158;25.302;2023-08-12T11:45:17;98393.00;;;31.23;35.38
29733;BME280;16643;43.158;25.302;2023-08-12T11:47:43;98416.97;;;31.40;34.07
29733;BME280;16643;43.158;25.302;2023-08-12T11:50:10;98376.31;;;30.71;33.55
29733;BME280;16643;43.158;25.302;2023-08-12T11:52:37;98401.00;;;30.74;33.34
29733;BME280;16643;43.158;25.302;2023-08-12T11:55:05;98394.47;;;30.85;33.10
29733;BME280;16643;43.158;25.302;2023-08-12T11:57:31;98401.53;;;30.86;34.07
29733;BME280;16643;43.158;25.302;2023-08-12T12:00:04;98377.69;;;30.91;33.78
29733;BME280;16643;43.158;25.302;2023-08-12T12:02:54;98360.72;;;30.74;32.67
29733;BME280;16643;43.158;25.302;2023-08-12T12:05:26;98389.09;;;31.01;33.57
29733;BME280;16643;43.158;25.302;2023-08-12T12:07:53;98394.47;;;30.85;33.08
29733;BME280;16643;43.158;25.302;2023-08-12T12:10:39;98387.59;;;30.90;33.47
29733;BME280;16643;43.158;25.302;2023-08-12T12:13:05;98394.34;;;31.11;34.04
29733;BME280;16643;43.158;25.302;2023-08-12T12:15:38;98373.66;;;31.19;34.11
29733;BME280;16643;43.158;25.302;2023-08-12T12:18:11;98387.56;;;31.39;34.24
29733;BME280;16643;43.158;25.302;2023-08-12T12:20:53;98365.59;;;31.03;32.86
29733;BME280;16643;43.158;25.302;2023-08-12T12:23:19;98373.13;;;31.08;33.30
29733;BME280;16643;43.158;25.302;2023-08-12T12:25:44;98387.59;;;30.16;31.00
29733;BME280;16643;43.158;25.302;2023-08-12T12:28:10;98343.72;;;30.41;32.16
29733;BME280;16643;43.158;25.302;2023-08-12T12:30:36;98349.09;;;30.33;32.55
29733;BME280;16643;43.158;25.302;2023-08-12T12:33:02;98348.63;;;30.70;34.39
29733;BME280;16643;43.158;25.302;2023-08-12T12:35:27;98339.09;;;30.92;34.26
29733;BME280;16643;43.158;25.302;2023-08-12T12:37:53;98356.00;;;31.33;32.80
29733;BME280;16643;43.158;25.302;2023-08-12T12:40:19;98317.56;;;31.00;33.10
29733;BME280;16643;43.158;25.302;2023-08-12T12:42:47;98362.91;;;31.19;33.21
29733;BME280;16643;43.158;25.302;2023-08-12T12:45:13;98364.09;;;31.25;34.00
29733;BME280;16643;43.158;25.302;2023-08-12T12:47:39;98352.34;;;31.26;32.84
29733;BME280;16643;43.158;25.302;2023-08-12T12:50:05;98353.47;;;31.39;32.52
29733;BME280;16643;43.158;25.302;2023-08-12T12:52:31;98328.81;;;31.20;32.87
29733;BME280;16643;43.158;25.302;2023-08-12T12:54:56;98333.69;;;31.16;33.53
29733;BME280;16643;43.158;25.302;2023-08-12T12:57:22;98339.19;;;31.47;32.55